Latest Weather Observations for St Kilda Harbour RMYS

IDV60901

Issued at 11:31 am EST Saturday 1 October 2016 (issued every 10 minutes, with the page automatically refreshed every 10 minutes)

About weather observations | Map of Melbourne area stations | Latest observations for Melbourne area | Other Formats
Station Details ID: 086220 Name: ST KILDA HARBOUR - RMYS Lat: -37.86 Lon: 144.96 Height: 6.4 m
Data from the previous 72 hours. | See also: Recent months for locations in Victoria
Date/Time
EST
Temp
°C
App
Temp
°C
Dew
Point
°C
Rel
Hum
%
Delta-T
°C
Wind Press
QNH
hPa
Press
MSL
hPa
Rain since
9am
mm
Dir  Spd
km/h
Gust
km/h
Spd
kts
Gust
kts
01/11:00am - - - - - W 39 54 21 29 - - -
01/10:30am - - - - - W 37 52 20 28 - - -
01/10:01am - - - - - WNW 28 46 15 25 - - -
01/10:00am - - - - - W 26 39 14 21 - - -
01/09:30am - - - - - WNW 35 48 19 26 - - -
01/09:00am - - - - - WNW 28 35 15 19 - - -
01/08:30am - - - - - WNW 32 48 17 26 - - -
01/08:00am - - - - - WNW 24 32 13 17 - - -
01/07:30am - - - - - WNW 32 37 17 20 - - -
01/07:00am - - - - - WNW 24 28 13 15 - - -
01/06:30am - - - - - WNW 24 32 13 17 - - -
01/06:00am - - - - - WNW 26 35 14 19 - - -
01/05:30am - - - - - WNW 22 28 12 15 - - -
01/05:00am - - - - - WNW 30 41 16 22 - - -
01/04:30am - - - - - NNW 15 20 8 11 - - -
01/04:00am - - - - - NW 19 22 10 12 - - -
01/03:30am - - - - - NNW 20 26 11 14 - - -
01/03:00am - - - - - NNW 20 28 11 15 - - -
01/02:30am - - - - - NNW 20 30 11 16 - - -
01/02:00am - - - - - N 19 26 10 14 - - -
01/01:30am - - - - - N 20 28 11 15 - - -
01/01:00am - - - - - NNW 24 37 13 20 - - -
01/12:30am - - - - - NNW 24 32 13 17 - - -
01/12:00am - - - - - NNW 28 35 15 19 - - -
 
Date/Time
EST
Temp
°C
App
Temp
°C
Dew
Point
°C
Rel
Hum
%
Delta-T
°C
Wind Press
QNH
hPa
Press
MSL
hPa
Rain since
9am
mm
Dir  Spd
km/h
Gust
km/h
Spd
kts
Gust
kts
30/11:30pm - - - - - NNW 20 28 11 15 - - -
30/11:00pm - - - - - NNW 19 22 10 12 - - -
30/10:30pm - - - - - NNW 11 15 6 8 - - -
30/10:00pm - - - - - NNW 15 19 8 10 - - -
30/09:30pm - - - - - NNW 11 15 6 8 - - -
30/09:00pm - - - - - NW 11 13 6 7 - - -
30/08:30pm - - - - - WNW 13 15 7 8 - - -
30/08:00pm - - - - - WNW 9 11 5 6 - - -
30/07:30pm - - - - - WNW 7 9 4 5 - - -
30/07:00pm - - - - - WSW 9 13 5 7 - - -
30/06:30pm - - - - - SW 7 9 4 5 - - -
30/06:00pm - - - - - SSW 11 15 6 8 - - -
30/05:30pm - - - - - SSW 9 13 5 7 - - -
30/05:00pm - - - - - S 11 15 6 8 - - -
30/04:30pm - - - - - S 15 17 8 9 - - -
30/04:00pm - - - - - SSW 13 15 7 8 - - -
30/03:30pm - - - - - S 17 19 9 10 - - -
30/03:00pm - - - - - SSW 13 15 7 8 - - -
30/02:30pm - - - - - S 11 13 6 7 - - -
30/02:00pm - - - - - S 13 17 7 9 - - -
30/01:30pm - - - - - S 13 15 7 8 - - -
30/01:00pm - - - - - S 13 15 7 8 - - -
30/12:30pm - - - - - S 9 11 5 6 - - -
30/12:00pm - - - - - SSW 9 13 5 7 - - -
30/11:30am - - - - - S 4 6 2 3 - - -
30/11:00am - - - - - W 6 9 3 5 - - -
30/10:30am - - - - - W 11 15 6 8 - - -
30/10:00am - - - - - W 13 15 7 8 - - -
30/09:30am - - - - - W 13 17 7 9 - - -
30/09:00am - - - - - NW 13 19 7 10 - - -
30/08:30am - - - - - NW 19 24 10 13 - - -
30/08:00am - - - - - N 15 20 8 11 - - -
30/07:30am - - - - - N 9 13 5 7 - - -
30/07:00am - - - - - NNE 13 19 7 10 - - -
30/06:30am - - - - - N 9 13 5 7 - - -
30/06:00am - - - - - N 9 15 5 8 - - -
30/05:30am - - - - - NNE 13 20 7 11 - - -
30/05:00am - - - - - NE 15 22 8 12 - - -
30/04:30am - - - - - NE 9 15 5 8 - - -
30/04:00am - - - - - NE 11 19 6 10 - - -
30/03:30am - - - - - NE 9 15 5 8 - - -
30/03:00am - - - - - NW 15 20 8 11 - - -
30/02:30am - - - - - ENE 17 30 9 16 - - -
30/02:00am - - - - - ENE 15 22 8 12 - - -
30/01:30am - - - - - E 15 20 8 11 - - -
30/01:00am - - - - - ENE 13 19 7 10 - - -
30/12:30am - - - - - ENE 13 20 7 11 - - -
30/12:00am - - - - - ENE 15 24 8 13 - - -
 
Date/Time
EST
Temp
°C
App
Temp
°C
Dew
Point
°C
Rel
Hum
%
Delta-T
°C
Wind Press
QNH
hPa
Press
MSL
hPa
Rain since
9am
mm
Dir  Spd
km/h
Gust
km/h
Spd
kts
Gust
kts
29/11:30pm - - - - - ENE 17 26 9 14 - - -
29/11:00pm - - - - - NE 19 32 10 17 - - -
29/10:30pm - - - - - ENE 15 26 8 14 - - -
29/10:00pm - - - - - ENE 17 33 9 18 - - -
29/09:30pm - - - - - ENE 17 24 9 13 - - -
29/09:00pm - - - - - NE 20 33 11 18 - - -
29/08:30pm - - - - - NE 19 28 10 15 - - -
29/08:00pm - - - - - NE 20 33 11 18 - - -
29/07:30pm - - - - - NE 20 30 11 16 - - -
29/07:00pm - - - - - NNE 20 30 11 16 - - -
29/06:30pm - - - - - N 20 33 11 18 - - -
29/06:00pm - - - - - N 26 39 14 21 - - -
29/05:45pm - - - - - N 30 48 16 26 - - -
29/05:30pm - - - - - NNW 19 30 10 16 - - -
29/05:00pm - - - - - N 19 30 10 16 - - -
29/04:30pm - - - - - NNW 32 54 17 29 - - -
29/04:08pm - - - - - NNW 44 63 24 34 - - -
29/04:06pm - - - - - NNW 46 70 25 38 - - -
29/04:00pm - - - - - N 35 70 19 38 - - -
29/03:58pm - - - - - N 32 70 17 38 - - -
29/03:57pm - - - - - N 28 48 15 26 - - -
29/03:30pm - - - - - N 20 32 11 17 - - -
29/03:00pm - - - - - N 28 41 15 22 - - -
29/02:30pm - - - - - N 24 39 13 21 - - -
29/02:00pm - - - - - N 35 50 19 27 - - -
29/01:30pm - - - - - NNW 30 48 16 26 - - -
29/01:14pm - - - - - NNW 32 50 17 27 - - -
29/01:00pm - - - - - N 28 43 15 23 - - -
29/12:30pm - - - - - NNW 35 50 19 27 - - -
29/12:00pm - - - - - NNW 33 57 18 31 - - -
29/11:59am - - - - - NNW 32 50 17 27 - - -
29/11:30am - - - - - NNW 39 54 21 29 - - -
29/11:00am - - - - - NNW 24 41 13 22 - - -
29/10:30am - - - - - NNW 33 43 18 23 - - -
29/10:00am - - - - - NNW 35 46 19 25 - - -
29/09:30am - - - - - NNW 24 35 13 19 - - -
29/09:00am - - - - - NNW 24 30 13 16 - - -
29/08:30am - - - - - NNW 32 43 17 23 - - -
29/08:00am - - - - - NNW 26 46 14 25 - - -
29/07:44am - - - - - NNW 28 48 15 26 - - -
29/07:30am - - - - - N 30 41 16 22 - - -
29/07:00am - - - - - NNE 19 26 10 14 - - -
29/06:30am - - - - - N 30 48 16 26 - - -
29/06:00am - - - - - N 24 37 13 20 - - -
29/05:30am - - - - - NNE 20 30 11 16 - - -
29/05:00am - - - - - NNE 20 30 11 16 - - -
29/04:30am - - - - - NNE 24 39 13 21 - - -
29/04:00am - - - - - NNE 28 43 15 23 - - -
29/03:30am - - - - - NE 26 41 14 22 - - -
29/03:00am - - - - - NE 24 37 13 20 - - -
29/02:30am - - - - - NNE 26 46 14 25 - - -
29/02:00am - - - - - NE 28 44 15 24 - - -
29/01:30am - - - - - NNE 32 52 17 28 - - -
29/01:00am - - - - - NNE 33 54 18 29 - - -
29/12:34am - - - - - NNE 28 46 15 25 - - -
29/12:30am - - - - - NNE 24 41 13 22 - - -
29/12:22am - - - - - NNE 28 46 15 25 - - -
29/12:00am - - - - - NNE 32 48 17 26 - - -
 
Date/Time
EST
Temp
°C
App
Temp
°C
Dew
Point
°C
Rel
Hum
%
Delta-T
°C
Wind Press
QNH
hPa
Press
MSL
hPa
Rain since
9am
mm
Dir  Spd
km/h
Gust
km/h
Spd
kts
Gust
kts
28/11:30pm - - - - - NNE 28 46 15 25 - - -
28/11:17pm - - - - - NNE 28 50 15 27 - - -
28/11:00pm - - - - - NNE 24 39 13 21 - - -
28/10:30pm - - - - - NNE 22 32 12 17 - - -
28/10:00pm - - - - - NNE 20 33 11 18 - - -
28/09:30pm - - - - - NNE 20 33 11 18 - - -
28/09:00pm - - - - - NNE 17 28 9 15 - - -
28/08:30pm - - - - - NNE 22 35 12 19 - - -
28/08:00pm - - - - - NE 24 39 13 21 - - -
28/07:30pm - - - - - NE 22 32 12 17 - - -
28/07:00pm - - - - - NNE 17 30 9 16 - - -
28/06:30pm - - - - - NNE 24 39 13 21 - - -
28/06:00pm - - - - - NNE 17 26 9 14 - - -
28/05:30pm - - - - - NNE 19 30 10 16 - - -
28/05:00pm - - - - - NNE 24 37 13 20 - - -
28/04:30pm - - - - - NNE 22 32 12 17 - - -
28/04:00pm - - - - - NNE 22 32 12 17 - - -
28/03:30pm - - - - - NNE 24 35 13 19 - - -
28/03:00pm - - - - - NNE 30 46 16 25 - - -
28/02:39pm - - - - - NNE 28 48 15 26 - - -
28/02:30pm - - - - - NNE 26 41 14 22 - - -
28/02:00pm - - - - - NNE 20 30 11 16 - - -
28/01:30pm - - - - - NNE 22 32 12 17 - - -
28/01:00pm - - - - - NNE 26 39 14 21 - - -
28/12:30pm - - - - - N 28 39 15 21 - - -
28/12:07pm - - - - - N 28 46 15 25 - - -
28/12:00pm - - - - - N 30 43 16 23 - - -

Latest Capital City Observations: Canberra | Sydney | Melbourne | Brisbane | Adelaide | Perth | Hobart | Darwin

Other Formats:

Comma delimited format used in spreadsheet applications
http://www.bom.gov.au/fwo/IDV60901/IDV60901.95864.axf

JavaScript Object Notation format (JSON) in row-major order
http://www.bom.gov.au/fwo/IDV60901/IDV60901.95864.json